• Join FlightAware (Why Join?)
  • Login
  • US Flag 
08:41AM EDT


 

Airport Tracker/Info


-or-


 

Live Flight TrackerFlight Track Log ✈ N135TW ✈ 27-Jul-2013 ✈ KBDR

Flight Track Log - Related Links

Times and Time Zones

All times are in EDT time to prevent confusion due to time zone crossing. See the N135TW flight status page for this flight to view local times or setup timezone preferences in your user account.

Time Position Orientation Groundspeed Altitude Reporting Facility
EDT Latitude Longitude Course Direction KTS MPH feet Rate Location/Type
06:13PM 39.6586 -74.3006 30° Northeast 166 191 9,500  Level New York Center
06:14PM 39.7139 -74.2575 31° Northeast 195 224 9,500 -60 Level New York Center
06:15PM 39.7650 -74.2222 28° Northeast 200 230 9,400  Descending New York Center
06:16PM 39.8100 -74.1839 33° Northeast 200 230 9,500  Climbing New York Center
06:17PM 39.8547 -74.1536 27° Northeast 200 230 9,400 -60 Descending New York Center
06:18PM 39.9100 -74.1103 31° Northeast 200 230 9,400  Level New York Center
06:19PM 39.8124 -74.1800 30° Northeast  Level Estimated
06:19PM 39.9589 -74.0747 29° Northeast 200 230 9,400  Level New York Center
06:20PM 40.0058 -74.0364 32° Northeast 200 230 9,400  Level New York Center
06:21PM 40.0483 -74.0058 29° Northeast 200 230 9,400  Level New York Center
06:22PM 40.0975 -73.9700 29° Northeast 195 224 9,400  Level New York Center
06:23PM 40.1486 -73.9292 31° Northeast 195 224 9,400  Level New York Center
06:24PM 40.1975 -73.8933 29° Northeast 190 219 9,400  Level New York Center
06:25PM 40.2442 -73.8544 32° Northeast 195 224 9,400  Level New York Center
06:26PM 40.2933 -73.8158 31° Northeast 195 224 9,400  Level New York Center
06:27PM 40.3400 -73.7772 32° Northeast 195 224 9,400  Level New York Center
06:28PM 40.3911 -73.7386 30° Northeast 195 224 9,400  Level New York Center
06:29PM 40.4378 -73.7025 30° Northeast 195 224 9,400  Level New York Center
06:30PM 40.4844 -73.6661 31° Northeast 195 224 9,400  Level New York Center
06:31PM 40.5272 -73.6297 33° Northeast 190 219 9,400  Level New York Center
06:32PM 40.5758 -73.5964 28° Northeast 190 219 9,400 -360 Level New York Center
06:33PM 40.6311 -73.5519 31° Northeast 202 232 8,800 -660 Descending New York Center
06:34PM 40.6797 -73.5158 29° Northeast 212 244 8,100 -900 Descending New York Center
06:36PM 40.7500 -73.4500 35° Northeast 218 251 6,700 -900 Descending New York TRACON
06:37PM 40.8000 -73.4167 27° Northeast 208 239 6,000 -720 Descending New York TRACON
06:38PM 40.8500 -73.3667 37° Northeast 198 228 5,300 -900 Descending New York TRACON
06:39PM 40.9000 -73.3333 27° Northeast 199 229 4,200 -960 Descending New York TRACON
06:40PM 40.9500 -73.3000 27° Northeast 195 224 3,400 -660 Descending New York TRACON
06:41PM 41.0000 -73.2667 27° Northeast 179 206 2,900 -480 Descending New York TRACON